Time;durP1;ratioP1;P1;durP2;ratioP2;P2;SDS_P1;SDS_P2;PMS_P1;PMS_P2;Temp;Humidity;BMP_temperature;BMP_pressure;BME280_temperature;BME280_humidity;BME280_pressure;Samples;Min_cycle;Max_cycle;Signal;HPM_P1;HPM_P2
2024/04/08 00:00:19;;;;;;;2.80;1.30;;;;;;;;;;5063738;28;20028;-85
2024/04/08 00:02:46;;;;;;;3.28;1.30;;;;;;;;;;5066890;28;20371;-85
2024/04/08 00:05:11;;;;;;;3.22;1.30;;;;;;;;;;5065779;28;20028;-86
2024/04/08 00:07:37;;;;;;;3.92;1.60;;;;;;;;;;5062755;28;20043;-85
2024/04/08 00:10:03;;;;;;;4.70;1.60;;;;;;;;;;5065073;28;20107;-86
2024/04/08 00:12:29;;;;;;;5.63;1.60;;;;;;;;;;5065182;28;20028;-85
2024/04/08 00:14:54;;;;;;;5.10;1.65;;;;;;;;;;5064226;28;20078;-86
2024/04/08 00:17:19;;;;;;;5.45;1.80;;;;;;;;;;5052116;28;20386;-86
2024/04/08 00:19:45;;;;;;;4.95;1.73;;;;;;;;;;5070651;28;20024;-86
2024/04/08 00:22:12;;;;;;;2.55;1.30;;;;;;;;;;5065229;28;20427;-85
2024/04/08 00:24:37;;;;;;;4.13;1.58;;;;;;;;;;5068609;28;20025;-86
2024/04/08 00:27:03;;;;;;;2.80;1.38;;;;;;;;;;5054938;28;20024;-86
2024/04/08 00:29:29;;;;;;;4.63;1.60;;;;;;;;;;5051929;28;20021;-85
2024/04/08 00:31:54;;;;;;;3.70;1.60;;;;;;;;;;5061613;28;20029;-86
2024/04/08 00:34:19;;;;;;;4.93;1.60;;;;;;;;;;5051510;28;20031;-85
2024/04/08 00:36:45;;;;;;;3.65;1.50;;;;;;;;;;5054179;28;20453;-86
2024/04/08 00:39:10;;;;;;;4.72;1.75;;;;;;;;;;5050492;28;20017;-86
2024/04/08 00:41:36;;;;;;;6.85;1.60;;;;;;;;;;5059880;28;20025;-85
2024/04/08 00:44:01;;;;;;;3.35;1.40;;;;;;;;;;5052730;28;20398;-85
2024/04/08 00:46:28;;;;;;;3.85;1.50;;;;;;;;;;5064073;28;20021;-85
2024/04/08 00:48:55;;;;;;;5.80;1.60;;;;;;;;;;5065881;28;20505;-86
2024/04/08 00:51:22;;;;;;;2.92;1.38;;;;;;;;;;5069540;28;20029;-85
2024/04/08 00:53:51;;;;;;;3.67;1.48;;;;;;;;;;5044923;28;20028;-85
2024/04/08 00:56:20;;;;;;;3.53;1.65;;;;;;;;;;5064168;28;20047;-89
2024/04/08 00:58:48;;;;;;;4.43;1.40;;;;;;;;;;5049748;28;20028;-89
2024/04/08 01:01:17;;;;;;;3.25;1.65;;;;;;;;;;5039322;28;20029;-89
2024/04/08 01:03:48;;;;;;;4.07;1.58;;;;;;;;;;5065460;22;20055;-84
2024/04/08 01:06:15;;;;;;;4.60;1.40;;;;;;;;;;5046638;28;20098;-80
2024/04/08 01:08:41;;;;;;;3.75;1.60;;;;;;;;;;5073624;28;20035;-80
2024/04/08 01:22:54;;;;;;;3.40;1.45;;;;;;;;;;6487743;20;3419571;-80
2024/04/08 01:25:20;;;;;;;4.35;1.50;;;;;;;;;;6588623;21;20000;-79
2024/04/08 01:27:46;;;;;;;4.43;1.27;;;;;;;;;;6584788;21;20000;-80
2024/04/08 01:30:11;;;;;;;5.88;1.70;;;;;;;;;;6588126;21;20001;-80
2024/04/08 01:32:36;;;;;;;4.47;1.48;;;;;;;;;;6585779;21;19996;-80
2024/04/08 01:35:03;;;;;;;4.20;1.67;;;;;;;;;;6585327;21;20303;-80
2024/04/08 01:37:30;;;;;;;4.20;1.65;;;;;;;;;;6585536;21;20029;-80
2024/04/08 01:39:56;;;;;;;2.83;1.27;;;;;;;;;;6588627;21;20028;-81
2024/04/08 01:42:22;;;;;;;3.50;1.52;;;;;;;;;;6588445;21;19997;-80
2024/04/08 01:44:48;;;;;;;4.03;1.40;;;;;;;;;;6585878;21;20436;-80
2024/04/08 01:47:13;;;;;;;5.05;1.50;;;;;;;;;;6587652;21;19997;-81
2024/04/08 01:49:39;;;;;;;3.55;1.50;;;;;;;;;;6585498;21;20070;-80
2024/04/08 01:52:06;;;;;;;4.40;1.27;;;;;;;;;;6588085;21;20055;-80
2024/04/08 01:54:32;;;;;;;4.65;1.63;;;;;;;;;;6585432;21;19996;-80
2024/04/08 01:56:57;;;;;;;5.57;1.50;;;;;;;;;;6585070;21;20000;-80
2024/04/08 01:59:24;;;;;;;3.38;1.52;;;;;;;;;;6585533;21;20074;-80
2024/04/08 02:01:49;;;;;;;3.22;1.33;;;;;;;;;;6587539;21;20386;-81
2024/04/08 02:04:27;;;;;;;5.40;1.40;;;;;;;;;;6587785;21;20011;-80
2024/04/08 02:06:52;;;;;;;3.72;1.30;;;;;;;;;;6586875;21;20095;-83
2024/04/08 02:09:18;;;;;;;5.60;1.52;;;;;;;;;;6582799;21;20496;-83
2024/04/08 02:11:43;;;;;;;5.43;1.30;;;;;;;;;;6585761;21;20100;-83
2024/04/08 02:14:08;;;;;;;2.95;1.17;;;;;;;;;;6585070;21;20004;-82
2024/04/08 02:16:37;;;;;;;5.30;1.83;;;;;;;;;;6584270;21;20005;-80
2024/04/08 02:19:02;;;;;;;4.10;1.52;;;;;;;;;;6586776;21;20015;-81
2024/04/08 02:21:28;;;;;;;2.67;1.30;;;;;;;;;;6585630;21;20325;-81
2024/04/08 02:23:53;;;;;;;4.28;1.50;;;;;;;;;;6580980;21;20319;-80
2024/04/08 02:26:19;;;;;;;4.32;1.50;;;;;;;;;;6579023;21;20000;-81
2024/04/08 02:28:44;;;;;;;3.17;1.30;;;;;;;;;;6578238;21;20420;-80
2024/04/08 02:31:11;;;;;;;5.28;1.40;;;;;;;;;;6578478;21;20001;-81
2024/04/08 02:33:37;;;;;;;4.60;1.50;;;;;;;;;;6581544;21;20032;-81
2024/04/08 02:36:06;;;;;;;4.28;1.70;;;;;;;;;;6578810;21;20431;-80
2024/04/08 02:38:33;;;;;;;3.55;1.52;;;;;;;;;;6536658;21;20004;-80
2024/04/08 02:40:59;;;;;;;3.92;1.70;;;;;;;;;;6579383;21;20008;-80
2024/04/08 02:43:25;;;;;;;3.92;1.40;;;;;;;;;;6578031;21;20040;-81
2024/04/08 02:45:51;;;;;;;3.38;1.75;;;;;;;;;;6580263;21;20515;-80
2024/04/08 02:48:19;;;;;;;4.15;2.00;;;;;;;;;;6578594;21;19996;-81
2024/04/08 02:50:45;;;;;;;3.20;1.73;;;;;;;;;;6579386;21;19996;-80
2024/04/08 02:53:10;;;;;;;4.28;2.10;;;;;;;;;;6578894;21;20071;-80
2024/04/08 02:55:37;;;;;;;3.13;1.70;;;;;;;;;;6578574;21;20008;-80
2024/04/08 02:58:04;;;;;;;5.07;2.20;;;;;;;;;;6578710;21;20001;-80
2024/04/08 03:00:30;;;;;;;4.10;1.92;;;;;;;;;;6578752;21;20408;-80
2024/04/08 03:02:55;;;;;;;3.53;1.77;;;;;;;;;;6579158;21;20010;-81
2024/04/08 03:05:31;;;;;;;4.00;1.95;;;;;;;;;;6578612;21;20001;-81
2024/04/08 03:07:57;;;;;;;6.65;1.90;;;;;;;;;;6581369;21;20008;-80
2024/04/08 03:10:24;;;;;;;4.35;2.00;;;;;;;;;;6578987;21;20004;-80
2024/04/08 03:12:49;;;;;;;4.75;1.80;;;;;;;;;;6581042;21;20441;-80
2024/04/08 03:15:15;;;;;;;4.13;2.03;;;;;;;;;;6580736;21;20007;-81
2024/04/08 03:17:41;;;;;;;4.88;1.80;;;;;;;;;;6578365;21;20043;-81
2024/04/08 03:20:07;;;;;;;3.83;2.10;;;;;;;;;;6580531;21;20316;-81
2024/04/08 03:22:32;;;;;;;4.93;2.00;;;;;;;;;;6577933;21;20011;-81
2024/04/08 03:24:58;;;;;;;5.10;1.90;;;;;;;;;;6580463;21;20307;-81
2024/04/08 03:27:23;;;;;;;4.63;2.13;;;;;;;;;;6576636;21;20007;-81
2024/04/08 03:29:52;;;;;;;4.00;1.92;;;;;;;;;;6576470;21;20308;-80
2024/04/08 03:32:17;;;;;;;3.35;1.85;;;;;;;;;;6532187;21;20443;-81
2024/04/08 03:34:43;;;;;;;4.50;2.75;;;;;;;;;;6576602;21;20001;-79
2024/04/08 03:37:10;;;;;;;3.78;1.92;;;;;;;;;;6578267;21;19992;-81
2024/04/08 03:39:35;;;;;;;4.47;2.20;;;;;;;;;;6575986;21;20347;-80
2024/04/08 03:42:01;;;;;;;5.75;2.13;;;;;;;;;;6576917;21;19997;-81
2024/04/08 03:44:26;;;;;;;3.80;2.15;;;;;;;;;;6576596;21;20078;-80
2024/04/08 03:46:51;;;;;;;5.55;2.20;;;;;;;;;;6575927;21;20000;-81
2024/04/08 03:49:17;;;;;;;5.53;2.05;;;;;;;;;;6573643;21;20012;-83
2024/04/08 03:51:42;;;;;;;4.60;2.05;;;;;;;;;;6575668;21;20008;-83
2024/04/08 03:54:08;;;;;;;5.03;2.47;;;;;;;;;;6573716;21;19997;-84
2024/04/08 03:56:33;;;;;;;5.88;2.40;;;;;;;;;;6572824;21;20000;-84
2024/04/08 03:58:59;;;;;;;4.07;2.20;;;;;;;;;;6574405;21;20000;-83
2024/04/08 04:01:25;;;;;;;5.05;2.17;;;;;;;;;;6573407;21;19996;-84
2024/04/08 04:03:54;;;;;;;5.05;2.40;;;;;;;;;;6573282;21;20000;-84
2024/04/08 04:06:20;;;;;;;5.35;2.40;;;;;;;;;;6573131;21;20007;-84
2024/04/08 04:08:45;;;;;;;4.85;2.53;;;;;;;;;;6575132;21;19996;-82
2024/04/08 04:11:11;;;;;;;3.67;2.42;;;;;;;;;;6573004;21;19997;-84
2024/04/08 04:13:36;;;;;;;5.95;2.53;;;;;;;;;;6572406;21;20000;-85
2024/04/08 04:16:05;;;;;;;6.10;2.60;;;;;;;;;;6573023;21;20000;-84
2024/04/08 04:18:34;;;;;;;5.03;2.72;;;;;;;;;;6572619;21;20048;-84
2024/04/08 04:21:00;;;;;;;6.28;2.80;;;;;;;;;;6572853;21;20136;-84
2024/04/08 04:23:25;;;;;;;4.88;2.92;;;;;;;;;;6572471;21;20014;-83
2024/04/08 04:25:58;;;;;;;6.57;2.78;;;;;;;;;;6574124;21;20416;-83
2024/04/08 04:28:24;;;;;;;6.47;2.90;;;;;;;;;;6572978;21;20001;-84
2024/04/08 04:30:57;;;;;;;8.68;3.13;;;;;;;;;;6572502;21;19996;-84
2024/04/08 04:33:22;;;;;;;;;;;;;;;;;;6576139;21;20028;-85
2024/04/08 04:35:52;;;;;;;7.28;2.88;;;;;;;;;;6573583;21;19921;-85
2024/04/08 04:38:18;;;;;;;5.47;3.20;;;;;;;;;;6574354;21;20003;-81
2024/04/08 04:40:43;;;;;;;7.63;3.40;;;;;;;;;;6574397;21;20008;-83
2024/04/08 04:43:14;;;;;;;4.88;2.88;;;;;;;;;;6577085;21;20433;-80
2024/04/08 04:45:40;;;;;;;5.80;2.95;;;;;;;;;;6579904;21;20008;-80
2024/04/08 04:48:05;;;;;;;9.10;3.13;;;;;;;;;;6577808;21;20070;-80
2024/04/08 04:50:34;;;;;;;5.55;2.88;;;;;;;;;;6577318;21;20028;-80
2024/04/08 04:52:59;;;;;;;6.00;3.30;;;;;;;;;;6579819;21;20007;-79
2024/04/08 04:55:25;;;;;;;7.35;3.17;;;;;;;;;;6575097;21;20004;-83
2024/04/08 04:57:50;;;;;;;8.55;3.17;;;;;;;;;;6573320;21;20007;-83
2024/04/08 05:00:16;;;;;;;6.40;3.13;;;;;;;;;;6575117;21;19996;-83
2024/04/08 05:02:42;;;;;;;5.93;3.10;;;;;;;;;;6573832;21;20000;-83
2024/04/08 05:05:09;;;;;;;6.03;3.17;;;;;;;;;;6571536;21;19992;-83
2024/04/08 05:07:34;;;;;;;6.95;3.65;;;;;;;;;;6573688;21;20436;-83
2024/04/08 05:09:59;;;;;;;5.35;3.63;;;;;;;;;;6573898;21;20011;-82
2024/04/08 05:12:25;;;;;;;4.75;2.85;;;;;;;;;;6574919;21;20007;-83
2024/04/08 05:14:50;;;;;;;5.72;3.38;;;;;;;;;;6575765;21;19996;-83
2024/04/08 05:17:16;;;;;;;6.32;3.22;;;;;;;;;;6573751;21;20308;-83
2024/04/08 05:19:41;;;;;;;5.97;3.35;;;;;;;;;;6575868;21;20075;-82
2024/04/08 05:22:08;;;;;;;5.88;3.30;;;;;;;;;;6571733;21;20011;-83
2024/04/08 05:24:38;;;;;;;5.45;3.33;;;;;;;;;;6574386;21;20413;-80
2024/04/08 05:27:05;;;;;;;4.95;3.20;;;;;;;;;;6579694;21;20337;-81
2024/04/08 05:29:30;;;;;;;5.57;3.38;;;;;;;;;;6577455;21;20011;-81
2024/04/08 05:31:55;;;;;;;12.43;4.72;;;;;;;;;;6579503;21;20031;-80
2024/04/08 05:34:21;;;;;;;6.10;3.30;;;;;;;;;;6579348;21;20012;-80
2024/04/08 05:36:46;;;;;;;7.07;3.70;;;;;;;;;;6579302;21;20311;-80
2024/04/08 05:39:12;;;;;;;5.47;3.33;;;;;;;;;;6579410;21;20000;-80
2024/04/08 05:41:38;;;;;;;7.13;3.22;;;;;;;;;;6577723;21;20000;-80
2024/04/08 05:44:03;;;;;;;7.35;3.58;;;;;;;;;;6579786;21;20000;-80
2024/04/08 05:46:29;;;;;;;5.65;3.35;;;;;;;;;;6580200;21;20425;-80
2024/04/08 05:48:54;;;;;;;7.57;3.88;;;;;;;;;;6577538;21;20008;-80
2024/04/08 05:51:22;;;;;;;7.43;3.60;;;;;;;;;;6579121;21;19993;-80
2024/04/08 05:53:47;;;;;;;7.18;3.90;;;;;;;;;;6578956;21;20096;-80
2024/04/08 05:56:13;;;;;;;6.43;4.03;;;;;;;;;;6575508;21;20433;-79
2024/04/08 05:58:38;;;;;;;6.70;4.00;;;;;;;;;;6580051;21;20070;-80
2024/04/08 06:01:04;;;;;;;6.90;3.70;;;;;;;;;;6579492;21;20006;-79
2024/04/08 06:03:37;;;;;;;7.45;3.75;;;;;;;;;;6581584;21;20042;-80
2024/04/08 06:06:06;;;;;;;6.72;4.03;;;;;;;;;;6578116;21;20070;-80
2024/04/08 06:08:31;;;;;;;6.78;4.28;;;;;;;;;;6581560;21;19996;-79
2024/04/08 06:11:04;;;;;;;7.32;3.88;;;;;;;;;;6578383;21;20000;-80
2024/04/08 06:13:32;;;;;;;7.13;3.75;;;;;;;;;;6579760;21;20028;-80
2024/04/08 06:15:58;;;;;;;5.43;3.88;;;;;;;;;;6581870;21;20336;-81
2024/04/08 06:18:23;;;;;;;7.72;4.20;;;;;;;;;;6582508;21;20047;-80
2024/04/08 06:20:55;;;;;;;6.18;4.05;;;;;;;;;;6579294;21;19996;-80
2024/04/08 06:23:21;;;;;;;7.35;3.85;;;;;;;;;;6579984;21;20082;-79
2024/04/08 06:25:47;;;;;;;7.28;4.93;;;;;;;;;;6582750;21;20424;-79
2024/04/08 06:28:13;;;;;;;6.85;4.55;;;;;;;;;;6581485;21;19996;-79
2024/04/08 06:30:39;;;;;;;7.30;4.20;;;;;;;;;;6581138;21;20000;-80
2024/04/08 06:33:06;;;;;;;7.95;4.20;;;;;;;;;;6579002;21;20425;-80
2024/04/08 06:35:32;;;;;;;7.75;3.75;;;;;;;;;;6579824;21;19996;-80
2024/04/08 06:37:57;;;;;;;6.60;3.80;;;;;;;;;;6579385;21;20445;-79
2024/04/08 06:40:23;;;;;;;7.35;3.97;;;;;;;;;;6579188;21;20011;-79
2024/04/08 06:42:48;;;;;;;7.15;3.95;;;;;;;;;;6579554;21;20000;-79
2024/04/08 06:45:13;;;;;;;6.60;3.83;;;;;;;;;;6579353;21;20000;-79
2024/04/08 06:47:40;;;;;;;8.10;3.88;;;;;;;;;;6579684;21;19996;-79
2024/04/08 06:50:06;;;;;;;8.15;4.00;;;;;;;;;;6578796;21;19997;-79
2024/04/08 06:52:32;;;;;;;6.45;3.60;;;;;;;;;;6579896;21;20312;-79
2024/04/08 06:54:57;;;;;;;8.05;4.40;;;;;;;;;;6581001;21;19997;-80
2024/04/08 06:57:25;;;;;;;6.38;3.72;;;;;;;;;;6579601;21;20011;-79
2024/04/08 06:59:50;;;;;;;5.15;3.17;;;;;;;;;;6581805;21;20008;-79
2024/04/08 07:02:16;;;;;;;8.25;3.67;;;;;;;;;;6579168;21;20015;-79
2024/04/08 07:04:43;;;;;;;7.68;3.50;;;;;;;;;;6578742;21;20010;-79
2024/04/08 07:07:09;;;;;;;6.75;3.60;;;;;;;;;;6579348;21;20321;-79
2024/04/08 07:09:35;;;;;;;4.90;3.08;;;;;;;;;;6578933;21;20010;-79
2024/04/08 07:12:02;;;;;;;7.03;3.25;;;;;;;;;;6581275;21;19997;-79
2024/04/08 07:14:27;;;;;;;5.20;2.92;;;;;;;;;;6579281;21;20000;-79
2024/04/08 07:16:53;;;;;;;5.85;2.83;;;;;;;;;;6581444;21;19996;-79
2024/04/08 07:19:22;;;;;;;5.55;3.30;;;;;;;;;;6579081;21;20000;-81
2024/04/08 07:21:48;;;;;;;5.50;3.05;;;;;;;;;;6578849;21;20052;-81
2024/04/08 07:24:13;;;;;;;5.68;2.67;;;;;;;;;;6578692;21;20000;-81
2024/04/08 07:26:39;;;;;;;6.07;3.35;;;;;;;;;;6580021;21;20100;-78
2024/04/08 07:29:04;;;;;;;5.63;2.97;;;;;;;;;;6577047;21;20000;-80
2024/04/08 07:31:30;;;;;;;8.55;3.80;;;;;;;;;;6576880;21;20015;-82
2024/04/08 07:33:55;;;;;;;5.45;3.15;;;;;;;;;;6577674;21;20322;-80
2024/04/08 07:36:21;;;;;;;5.70;3.20;;;;;;;;;;6578530;21;20011;-80
2024/04/08 07:38:47;;;;;;;5.78;3.30;;;;;;;;;;6578553;21;20008;-81
2024/04/08 07:41:12;;;;;;;7.32;3.20;;;;;;;;;;6578857;21;20289;-81
2024/04/08 07:43:39;;;;;;;6.30;3.33;;;;;;;;;;6578759;21;20070;-80
2024/04/08 07:46:07;;;;;;;5.07;3.40;;;;;;;;;;6535390;21;20409;-80
2024/04/08 07:48:32;;;;;;;6.03;3.25;;;;;;;;;;6579032;21;19996;-81
2024/04/08 07:50:59;;;;;;;7.68;3.22;;;;;;;;;;6578433;21;20480;-81
2024/04/08 07:53:24;;;;;;;4.93;3.00;;;;;;;;;;6578606;21;20434;-81
2024/04/08 07:55:53;;;;;;;5.57;2.55;;;;;;;;;;6577644;21;20026;-80
2024/04/08 07:58:18;;;;;;;5.53;3.22;;;;;;;;;;6580741;21;20035;-81
2024/04/08 08:00:43;;;;;;;4.85;3.15;;;;;;;;;;6577770;21;20313;-80
2024/04/08 08:03:09;;;;;;;6.47;3.05;;;;;;;;;;6578036;21;20012;-80
2024/04/08 08:05:34;;;;;;;4.72;3.17;;;;;;;;;;6580707;21;20007;-81
2024/04/08 08:08:00;;;;;;;5.43;3.20;;;;;;;;;;6578564;21;20008;-80
2024/04/08 08:10:25;;;;;;;4.60;2.65;;;;;;;;;;6578329;21;19997;-79
2024/04/08 08:12:51;;;;;;;5.65;3.42;;;;;;;;;;6577954;21;20008;-80
2024/04/08 08:15:16;;;;;;;6.32;3.20;;;;;;;;;;6577839;21;19996;-79
2024/04/08 08:17:42;;;;;;;6.43;3.10;;;;;;;;;;6578076;21;19996;-80
2024/04/08 08:20:07;;;;;;;6.07;3.83;;;;;;;;;;6579858;21;20210;-79
2024/04/08 08:22:33;;;;;;;5.15;3.15;;;;;;;;;;6580198;21;20008;-79
2024/04/08 08:24:59;;;;;;;6.32;3.42;;;;;;;;;;6578047;21;20074;-81
2024/04/08 08:27:24;;;;;;;5.60;3.55;;;;;;;;;;6578011;21;20040;-79
2024/04/08 08:29:51;;;;;;;7.18;3.53;;;;;;;;;;6578026;21;20007;-79
2024/04/08 08:32:16;;;;;;;8.02;3.08;;;;;;;;;;6577622;21;20417;-79
2024/04/08 08:34:42;;;;;;;6.45;3.40;;;;;;;;;;6577500;21;20012;-79
2024/04/08 08:37:08;;;;;;;5.93;3.22;;;;;;;;;;6577927;21;20000;-79
2024/04/08 08:39:37;;;;;;;6.40;4.03;;;;;;;;;;6577851;21;20025;-79
2024/04/08 08:42:06;;;;;;;7.35;3.60;;;;;;;;;;6577693;21;20000;-81
2024/04/08 08:44:32;;;;;;;8.15;3.88;;;;;;;;;;6577184;21;19996;-80
2024/04/08 08:46:58;;;;;;;8.20;3.65;;;;;;;;;;6533054;21;19996;-84
2024/04/08 08:49:27;;;;;;;5.70;3.38;;;;;;;;;;6576313;21;19996;-84
2024/04/08 08:51:53;;;;;;;6.22;3.35;;;;;;;;;;6577336;21;20001;-84
2024/04/08 08:54:18;;;;;;;7.68;4.10;;;;;;;;;;6576791;21;20360;-84
2024/04/08 08:56:44;;;;;;;6.18;3.75;;;;;;;;;;6577656;21;20011;-82
2024/04/08 08:59:13;;;;;;;6.82;4.18;;;;;;;;;;6576898;21;20413;-82
2024/04/08 09:01:39;;;;;;;6.00;3.50;;;;;;;;;;6577120;21;20008;-82
2024/04/08 09:04:07;;;;;;;9.10;4.03;;;;;;;;;;6579701;21;20297;-82
2024/04/08 09:06:32;;;;;;;5.97;3.72;;;;;;;;;;6577400;21;20000;-82
2024/04/08 09:08:57;;;;;;;6.53;4.25;;;;;;;;;;6576724;21;20538;-82
2024/04/08 09:11:23;;;;;;;6.97;4.30;;;;;;;;;;6577407;21;19997;-82
2024/04/08 09:13:50;;;;;;;6.97;4.70;;;;;;;;;;6577470;21;20008;-82
2024/04/08 09:16:22;;;;;;;8.07;4.80;;;;;;;;;;6577494;21;20460;-82
2024/04/08 09:18:47;;;;;;;9.53;4.83;;;;;;;;;;6576705;21;19997;-80
2024/04/08 09:21:13;;;;;;;6.68;4.80;;;;;;;;;;6577512;21;20007;-80
2024/04/08 09:23:42;;;;;;;11.82;5.10;;;;;;;;;;6577474;21;20312;-80
2024/04/08 09:26:08;;;;;;;6.97;4.65;;;;;;;;;;6577649;21;20058;-80
2024/04/08 09:28:34;;;;;;;6.65;4.75;;;;;;;;;;6577029;21;20066;-80
2024/04/08 09:30:59;;;;;;;7.55;4.30;;;;;;;;;;6577089;21;20372;-80
2024/04/08 09:33:25;;;;;;;7.63;4.47;;;;;;;;;;6579630;21;19996;-81
2024/04/08 09:35:50;;;;;;;8.32;4.10;;;;;;;;;;6578521;21;20008;-80
2024/04/08 09:38:17;;;;;;;6.50;4.43;;;;;;;;;;6579212;21;20074;-80
2024/04/08 09:40:43;;;;;;;8.48;4.65;;;;;;;;;;6579461;21;20015;-80
2024/04/08 09:43:10;;;;;;;6.43;4.80;;;;;;;;;;6536095;21;20000;-80
2024/04/08 09:45:35;;;;;;;7.82;4.25;;;;;;;;;;6579096;21;20424;-80
2024/04/08 09:48:01;;;;;;;9.40;4.80;;;;;;;;;;6579616;21;20001;-80
2024/04/08 09:50:28;;;;;;;6.75;4.40;;;;;;;;;;6579611;21;20010;-80
2024/04/08 09:52:54;;;;;;;7.35;4.55;;;;;;;;;;6579467;21;20316;-81
2024/04/08 09:55:28;;;;;;;7.30;4.95;;;;;;;;;;6579581;21;20421;-81
2024/04/08 09:57:57;;;;;;;6.90;3.97;;;;;;;;;;6578982;21;19992;-81
2024/04/08 10:00:22;;;;;;;5.57;3.67;;;;;;;;;;6579406;21;20000;-80
2024/04/08 10:02:52;;;;;;;4.93;3.33;;;;;;;;;;6581133;21;20011;-80
2024/04/08 10:05:18;;;;;;;6.28;4.28;;;;;;;;;;6581562;21;20028;-83
2024/04/08 10:07:44;;;;;;;6.28;4.00;;;;;;;;;;6579445;21;20042;-84
2024/04/08 10:10:13;;;;;;;7.78;4.40;;;;;;;;;;6579224;21;20340;-83
2024/04/08 10:12:40;;;;;;;6.95;4.03;;;;;;;;;;6580313;21;20420;-84
2024/04/08 10:15:13;;;;;;;5.78;4.20;;;;;;;;;;6579198;21;20007;-84
2024/04/08 10:17:46;;;;;;;6.75;4.20;;;;;;;;;;6579523;21;20004;-84
2024/04/08 10:20:18;;;;;;;7.78;4.28;;;;;;;;;;6581963;21;20004;-84
2024/04/08 10:22:45;;;;;;;6.43;4.05;;;;;;;;;;6581123;21;20325;-84
2024/04/08 10:25:29;;;;;;;8.70;4.45;;;;;;;;;;6581706;21;20311;-84
2024/04/08 10:28:15;;;;;;;6.10;4.15;;;;;;;;;;6578696;21;19997;-81
2024/04/08 10:30:42;;;;;;;6.07;4.40;;;;;;;;;;6578933;21;20408;-81
2024/04/08 10:33:10;;;;;;;7.97;5.47;;;;;;;;;;6578379;21;20454;-81
2024/04/08 10:35:36;;;;;;;9.35;4.07;;;;;;;;;;6579001;21;20000;-80
2024/04/08 10:38:02;;;;;;;7.28;4.82;;;;;;;;;;6581526;21;20074;-82
2024/04/08 10:40:28;;;;;;;6.80;4.20;;;;;;;;;;6579382;21;20012;-81
2024/04/08 10:42:55;;;;;;;7.13;4.68;;;;;;;;;;6578527;21;19992;-80
2024/04/08 10:45:21;;;;;;;8.18;4.72;;;;;;;;;;6579500;21;20417;-80
2024/04/08 10:47:47;;;;;;;8.27;5.00;;;;;;;;;;6581433;21;20011;-80
2024/04/08 10:50:13;;;;;;;8.50;4.72;;;;;;;;;;6581374;21;19996;-81
2024/04/08 10:52:42;;;;;;;7.53;5.53;;;;;;;;;;6578978;21;19993;-81
2024/04/08 10:55:08;;;;;;;6.75;5.20;;;;;;;;;;6579245;21;19997;-80
2024/04/08 10:57:34;;;;;;;8.30;5.45;;;;;;;;;;6578860;21;20019;-80
2024/04/08 11:00:01;;;;;;;7.15;5.70;;;;;;;;;;6578521;21;20420;-80
2024/04/08 11:02:26;;;;;;;10.75;4.80;;;;;;;;;;6578401;21;19992;-84
2024/04/08 11:04:53;;;;;;;6.72;4.95;;;;;;;;;;6578555;21;20417;-84
2024/04/08 11:07:18;;;;;;;6.72;4.80;;;;;;;;;;6578891;21;20000;-84
2024/04/08 11:09:44;;;;;;;8.13;5.05;;;;;;;;;;6578887;21;20367;-83
2024/04/08 11:12:14;;;;;;;8.52;5.10;;;;;;;;;;6579421;21;20000;-84
2024/04/08 11:14:42;;;;;;;8.00;5.10;;;;;;;;;;6578068;21;20456;-82
2024/04/08 11:17:10;;;;;;;7.88;5.57;;;;;;;;;;6578512;21;20413;-81
2024/04/08 11:19:39;;;;;;;7.55;5.60;;;;;;;;;;6578738;21;20011;-80
2024/04/08 11:22:08;;;;;;;7.07;5.00;;;;;;;;;;6581129;21;20000;-80
2024/04/08 11:24:34;;;;;;;9.05;5.60;;;;;;;;;;6577936;21;20012;-80
2024/04/08 11:27:00;;;;;;;6.57;5.32;;;;;;;;;;6578273;21;20014;-81
2024/04/08 11:29:26;;;;;;;12.30;5.70;;;;;;;;;;6578125;21;20000;-80
2024/04/08 11:31:52;;;;;;;8.75;5.50;;;;;;;;;;6580260;21;20434;-81
2024/04/08 11:34:17;;;;;;;7.15;4.97;;;;;;;;;;6578725;21;19996;-80
2024/04/08 11:36:43;;;;;;;7.15;5.25;;;;;;;;;;6580713;21;20409;-81
2024/04/08 11:39:08;;;;;;;7.50;5.22;;;;;;;;;;6578915;21;19997;-84
2024/04/08 11:41:33;;;;;;;8.88;5.60;;;;;;;;;;6578600;21;19996;-84
2024/04/08 11:43:59;;;;;;;9.85;5.80;;;;;;;;;;6579652;21;20019;-84
2024/04/08 11:46:24;;;;;;;7.03;5.03;;;;;;;;;;6577862;21;19996;-84
2024/04/08 11:48:50;;;;;;;8.07;4.70;;;;;;;;;;6578064;21;19993;-84
2024/04/08 11:51:15;;;;;;;8.13;5.10;;;;;;;;;;6579733;21;20324;-84
2024/04/08 11:53:40;;;;;;;8.57;5.60;;;;;;;;;;6579534;21;20075;-84
2024/04/08 11:56:08;;;;;;;6.60;5.43;;;;;;;;;;6577104;21;20398;-84
2024/04/08 11:58:36;;;;;;;8.18;6.15;;;;;;;;;;6577302;21;20004;-84
2024/04/08 12:01:11;;;;;;;11.35;6.13;;;;;;;;;;6567910;21;20009;-83
2024/04/08 12:03:39;;;;;;;12.55;6.90;;;;;;;;;;6568385;21;20048;-84
2024/04/08 12:06:09;;;;;;;9.38;6.53;;;;;;;;;;6573322;21;20011;-84
2024/04/08 12:08:37;;;;;;;7.40;6.10;;;;;;;;;;6576758;21;19997;-86
2024/04/08 12:11:04;;;;;;;8.27;5.70;;;;;;;;;;6573358;21;20008;-83
2024/04/08 12:13:30;;;;;;;8.55;5.40;;;;;;;;;;6576066;21;20016;-85
2024/04/08 12:15:55;;;;;;;10.15;5.47;;;;;;;;;;6573638;21;20400;-84
2024/04/08 12:18:21;;;;;;;7.25;4.60;;;;;;;;;;6575920;21;20012;-85
2024/04/08 12:20:46;;;;;;;10.10;5.32;;;;;;;;;;6574043;21;20000;-84
2024/04/08 12:23:13;;;;;;;10.52;5.97;;;;;;;;;;6574861;21;20488;-84
2024/04/08 12:25:42;;;;;;;7.53;4.82;;;;;;;;;;6573501;21;20299;-85
2024/04/08 12:28:11;;;;;;;6.57;4.60;;;;;;;;;;6577128;21;20304;-84
2024/04/08 12:30:36;;;;;;;8.70;4.60;;;;;;;;;;6573647;21;20025;-84
2024/04/08 12:33:02;;;;;;;9.25;4.43;;;;;;;;;;6567206;21;20000;-83
2024/04/08 12:35:28;;;;;;;9.57;4.30;;;;;;;;;;6571521;21;19996;-83
2024/04/08 12:37:54;;;;;;;7.35;4.35;;;;;;;;;;6573430;21;20036;-84
2024/04/08 12:40:19;;;;;;;5.88;3.88;;;;;;;;;;6575551;21;20305;-84
2024/04/08 12:42:45;;;;;;;7.80;4.20;;;;;;;;;;6568046;21;20010;-84
2024/04/08 12:45:10;;;;;;;5.85;3.80;;;;;;;;;;6569978;21;19992;-84
2024/04/08 12:47:38;;;;;;;7.75;4.15;;;;;;;;;;6571917;21;20032;-84
2024/04/08 12:50:07;;;;;;;7.80;4.10;;;;;;;;;;6571973;21;20297;-84
2024/04/08 12:52:36;;;;;;;8.13;4.38;;;;;;;;;;6568021;21;20048;-83
2024/04/08 12:55:03;;;;;;;6.15;4.30;;;;;;;;;;6567889;21;20732;-84
2024/04/08 12:57:28;;;;;;;8.70;3.97;;;;;;;;;;6573662;21;20004;-84
2024/04/08 12:59:53;;;;;;;6.55;4.28;;;;;;;;;;6573886;21;20006;-85
2024/04/08 13:02:23;;;;;;;5.97;4.18;;;;;;;;;;6570978;21;20008;-85
2024/04/08 13:04:50;;;;;;;6.25;4.13;;;;;;;;;;6568236;21;19996;-86
2024/04/08 13:07:17;;;;;;;10.38;4.57;;;;;;;;;;6573140;21;20400;-86
2024/04/08 13:09:42;;;;;;;6.40;4.13;;;;;;;;;;6576423;21;20008;-86
2024/04/08 13:12:08;;;;;;;7.18;4.10;;;;;;;;;;6577502;21;20420;-86
2024/04/08 13:14:33;;;;;;;9.07;4.82;;;;;;;;;;6579795;21;20007;-87
2024/04/08 13:16:59;;;;;;;8.93;5.18;;;;;;;;;;6579387;21;20009;-87
2024/04/08 13:19:25;;;;;;;7.47;4.65;;;;;;;;;;6575574;21;20000;-84
2024/04/08 13:21:50;;;;;;;6.97;4.40;;;;;;;;;;6575588;21;20459;-84
2024/04/08 13:24:19;;;;;;;7.68;4.10;;;;;;;;;;6577048;21;20000;-84
2024/04/08 13:26:48;;;;;;;8.50;4.40;;;;;;;;;;6576989;21;19997;-84
2024/04/08 13:29:13;;;;;;;7.53;4.20;;;;;;;;;;6579038;21;20001;-85
2024/04/08 13:31:39;;;;;;;7.00;4.05;;;;;;;;;;6579736;21;20395;-83
2024/04/08 13:34:04;;;;;;;7.88;4.03;;;;;;;;;;6577681;21;19996;-84
2024/04/08 13:36:30;;;;;;;6.70;3.80;;;;;;;;;;6577670;21;19996;-84
2024/04/08 13:38:55;;;;;;;7.72;3.90;;;;;;;;;;6578699;21;19996;-84
2024/04/08 13:41:21;;;;;;;9.07;4.00;;;;;;;;;;6574786;21;20296;-84
2024/04/08 13:43:46;;;;;;;7.25;3.95;;;;;;;;;;6573711;21;19996;-84
2024/04/08 13:46:12;;;;;;;7.80;3.58;;;;;;;;;;6576208;21;20012;-84
2024/04/08 13:48:38;;;;;;;7.63;3.30;;;;;;;;;;6574398;21;20294;-83
2024/04/08 13:51:05;;;;;;;6.95;3.50;;;;;;;;;;6576206;21;20012;-84
2024/04/08 13:53:30;;;;;;;6.75;3.30;;;;;;;;;;6574813;21;20507;-84
2024/04/08 13:55:57;;;;;;;7.03;3.20;;;;;;;;;;6579428;21;20012;-84
2024/04/08 13:58:23;;;;;;;6.70;2.72;;;;;;;;;;6577140;21;20008;-84
2024/04/08 14:00:48;;;;;;;7.63;2.70;;;;;;;;;;6576813;21;20072;-81
2024/04/08 14:03:14;;;;;;;5.20;2.60;;;;;;;;;;6576678;21;20006;-82
2024/04/08 14:05:39;;;;;;;4.55;2.33;;;;;;;;;;6577775;21;20000;-84
2024/04/08 14:08:05;;;;;;;5.63;2.25;;;;;;;;;;6574551;21;19992;-84
2024/04/08 14:10:30;;;;;;;5.90;2.63;;;;;;;;;;6575179;21;20020;-84
2024/04/08 14:12:56;;;;;;;5.75;2.13;;;;;;;;;;6577863;21;19996;-84
2024/04/08 14:15:21;;;;;;;3.85;2.00;;;;;;;;;;6575946;21;20010;-84
2024/04/08 14:17:46;;;;;;;4.32;2.30;;;;;;;;;;6576355;21;19996;-84
2024/04/08 14:20:12;;;;;;;3.72;1.85;;;;;;;;;;6581481;21;20032;-84
2024/04/08 14:22:38;;;;;;;6.20;2.55;;;;;;;;;;6581253;21;19993;-84
2024/04/08 14:25:03;;;;;;;7.35;2.95;;;;;;;;;;6578597;21;20302;-84
2024/04/08 14:27:29;;;;;;;6.30;2.72;;;;;;;;;;6578544;21;20008;-84
2024/04/08 14:29:54;;;;;;;7.05;2.80;;;;;;;;;;6577475;21;20009;-84
2024/04/08 14:32:19;;;;;;;6.55;3.25;;;;;;;;;;6580630;21;20421;-84
2024/04/08 14:34:45;;;;;;;8.70;3.42;;;;;;;;;;6577905;21;20015;-83
2024/04/08 14:37:14;;;;;;;6.07;3.60;;;;;;;;;;6534395;21;20004;-84
2024/04/08 14:39:39;;;;;;;7.65;3.15;;;;;;;;;;6581016;21;20004;-84
2024/04/08 14:42:04;;;;;;;8.80;3.50;;;;;;;;;;6578565;21;20012;-84
2024/04/08 14:44:30;;;;;;;8.88;3.30;;;;;;;;;;6577526;21;20425;-84
2024/04/08 14:46:56;;;;;;;6.93;3.00;;;;;;;;;;6578757;21;20036;-83
2024/04/08 14:49:21;;;;;;;8.13;2.88;;;;;;;;;;6580704;21;19996;-84